Time;durP1;ratioP1;P1;durP2;ratioP2;P2;SDS_P1;SDS_P2;PMS_P1;PMS_P2;Temp;Humidity;BMP_temperature;BMP_pressure;BME280_temperature;BME280_humidity;BME280_pressure;Samples;Min_cycle;Max_cycle;Signal;HPM_P1;HPM_P2
2022/09/24 00:01:50;;;;;;;108.88;63.22;;;;;;;;;;5036518;28;20517;-75
2022/09/24 00:04:16;;;;;;;97.15;58.67;;;;;;;;;;5040354;28;20332;-76
2022/09/24 00:06:47;;;;;;;96.40;51.95;;;;;;;;;;5027079;28;20048;-75
2022/09/24 00:09:14;;;;;;;106.45;54.50;;;;;;;;;;5048992;28;20063;-76
2022/09/24 00:11:42;;;;;;;102.30;52.50;;;;;;;;;;5049787;28;20038;-77
2022/09/24 00:14:08;;;;;;;95.25;51.05;;;;;;;;;;5015619;28;20137;-76
2022/09/24 00:16:34;;;;;;;107.10;58.58;;;;;;;;;;5040008;28;20036;-76
2022/09/24 00:19:01;;;;;;;104.20;57.45;;;;;;;;;;5041615;28;20726;-75
2022/09/24 00:21:28;;;;;;;109.57;57.33;;;;;;;;;;5041241;28;20037;-75
2022/09/24 00:23:59;;;;;;;125.22;68.30;;;;;;;;;;5041689;28;20029;-73
2022/09/24 00:29:13;;;;;;;127.32;66.45;;;;;;;;;;5038699;28;20552;-73
2022/09/24 00:31:38;;;;;;;106.78;60.50;;;;;;;;;;5032924;28;22121;-73
2022/09/24 00:34:04;;;;;;;108.95;63.65;;;;;;;;;;5049005;28;20025;-73
2022/09/24 00:36:29;;;;;;;114.82;75.40;;;;;;;;;;5023111;28;20882;-74
2022/09/24 00:38:56;;;;;;;107.93;62.38;;;;;;;;;;5037228;28;20092;-73
2022/09/24 00:41:25;;;;;;;103.88;62.65;;;;;;;;;;5035141;28;20590;-73
2022/09/24 00:43:54;;;;;;;115.60;63.20;;;;;;;;;;5035447;28;20056;-72
2022/09/24 00:46:20;;;;;;;123.15;63.22;;;;;;;;;;5035288;28;21925;-72
2022/09/24 00:48:47;;;;;;;116.13;62.75;;;;;;;;;;5038031;28;20036;-71
2022/09/24 00:51:17;;;;;;;123.28;72.82;;;;;;;;;;5034772;28;20028;-70
2022/09/24 00:53:45;;;;;;;129.20;87.30;;;;;;;;;;5035607;28;21018;-72
2022/09/24 00:56:14;;;;;;;127.57;90.05;;;;;;;;;;5036489;28;20032;-71
2022/09/24 00:58:44;;;;;;;168.77;105.50;;;;;;;;;;5034912;28;20040;-72
2022/09/24 01:01:15;;;;;;;137.02;92.85;;;;;;;;;;5034740;28;20330;-72
2022/09/24 01:03:41;;;;;;;125.10;89.53;;;;;;;;;;5022427;28;20036;-71
2022/09/24 01:06:08;;;;;;;128.68;94.25;;;;;;;;;;5036701;28;20032;-72
2022/09/24 01:08:34;;;;;;;117.57;75.85;;;;;;;;;;5036384;28;20131;-70
2022/09/24 01:11:08;;;;;;;109.70;69.40;;;;;;;;;;5034054;28;20076;-71
2022/09/24 01:13:54;;;;;;;122.35;72.03;;;;;;;;;;5033407;28;20161;-71
2022/09/24 01:16:25;;;;;;;110.78;60.75;;;;;;;;;;5035764;28;20033;-70
2022/09/24 01:19:08;;;;;;;104.70;61.47;;;;;;;;;;5035698;28;20040;-70
2022/09/24 01:21:36;;;;;;;107.57;61.78;;;;;;;;;;5035147;28;20032;-69
2022/09/24 01:24:20;;;;;;;115.35;63.78;;;;;;;;;;5035764;28;20036;-69
2022/09/24 01:26:58;;;;;;;110.68;67.45;;;;;;;;;;5035981;28;20108;-70
2022/09/24 01:29:42;;;;;;;107.35;70.47;;;;;;;;;;5034536;28;20669;-70
2022/09/24 01:32:27;;;;;;;110.95;62.65;;;;;;;;;;5034392;28;20036;-69
2022/09/24 01:34:59;;;;;;;91.40;54.65;;;;;;;;;;5036647;28;20071;-69
2022/09/24 01:37:27;;;;;;;105.47;60.70;;;;;;;;;;5049571;28;20040;-71
2022/09/24 01:39:53;;;;;;;107.53;69.05;;;;;;;;;;5051438;28;20040;-69
2022/09/24 01:42:19;;;;;;;107.78;69.53;;;;;;;;;;5033708;28;20293;-70
2022/09/24 01:44:45;;;;;;;117.38;66.32;;;;;;;;;;5036309;28;20068;-69
2022/09/24 01:47:17;;;;;;;111.05;69.38;;;;;;;;;;5036545;28;21914;-69
2022/09/24 01:49:43;;;;;;;107.65;68.05;;;;;;;;;;5050378;28;20501;-70
2022/09/24 01:52:13;;;;;;;102.90;63.75;;;;;;;;;;5049014;28;20313;-69
2022/09/24 01:54:49;;;;;;;106.43;65.20;;;;;;;;;;5020888;28;20087;-69
2022/09/24 01:57:19;;;;;;;105.07;64.65;;;;;;;;;;5036122;28;20524;-70
2022/09/24 01:59:48;;;;;;;92.50;57.67;;;;;;;;;;5034775;28;20277;-69
2022/09/24 02:02:35;;;;;;;94.82;55.40;;;;;;;;;;5032643;28;20032;-69
2022/09/24 02:05:04;;;;;;;90.70;53.10;;;;;;;;;;5019660;28;20544;-71
2022/09/24 02:07:35;;;;;;;88.00;50.60;;;;;;;;;;5034038;28;20047;-69
2022/09/24 02:10:03;;;;;;;100.13;55.10;;;;;;;;;;5019184;28;20046;-69
2022/09/24 02:12:33;;;;;;;99.40;54.45;;;;;;;;;;5020824;28;20210;-70
2022/09/24 02:15:09;;;;;;;96.30;53.05;;;;;;;;;;5017419;28;20280;-69
2022/09/24 02:17:36;;;;;;;92.68;50.70;;;;;;;;;;5035900;28;20036;-70
2022/09/24 02:20:03;;;;;;;131.98;53.92;;;;;;;;;;5008312;28;20398;-69
2022/09/24 02:22:29;;;;;;;101.30;55.67;;;;;;;;;;5017548;28;20036;-70
2022/09/24 02:24:56;;;;;;;85.53;48.75;;;;;;;;;;5036160;28;20169;-74
2022/09/24 02:27:25;;;;;;;29.85;19.80;;;;;;;;;;5039106;28;20279;-72
2022/09/24 02:29:57;;;;;;;30.58;18.08;;;;;;;;;;5017848;28;20612;-73
2022/09/24 02:32:25;;;;;;;26.67;16.55;;;;;;;;;;5054159;28;20574;-71
2022/09/24 02:34:52;;;;;;;27.50;15.43;;;;;;;;;;5063709;28;20219;-70
2022/09/24 02:37:20;;;;;;;30.73;17.38;;;;;;;;;;5058758;28;20025;-73
2022/09/24 02:39:46;;;;;;;36.10;19.83;;;;;;;;;;5045209;28;20040;-72
2022/09/24 02:42:12;;;;;;;36.60;19.38;;;;;;;;;;5070262;28;20796;-73
2022/09/24 02:44:38;;;;;;;32.22;15.35;;;;;;;;;;5051755;28;20185;-73
2022/09/24 02:47:03;;;;;;;23.33;11.98;;;;;;;;;;5058153;28;20425;-74
2022/09/24 02:49:31;;;;;;;24.40;11.05;;;;;;;;;;5035768;28;20119;-75
2022/09/24 02:51:57;;;;;;;21.92;10.65;;;;;;;;;;5034006;28;20044;-76
2022/09/24 02:54:25;;;;;;;20.75;11.25;;;;;;;;;;5030489;28;20412;-75
2022/09/24 02:56:53;;;;;;;23.20;10.20;;;;;;;;;;5046648;28;20051;-75
2022/09/24 02:59:19;;;;;;;18.48;9.20;;;;;;;;;;5046306;28;20047;-76
2022/09/24 03:01:44;;;;;;;21.40;7.63;;;;;;;;;;5035751;28;20254;-77
2022/09/24 03:04:10;;;;;;;16.58;7.00;;;;;;;;;;5038176;28;20495;-76
2022/09/24 03:06:40;;;;;;;19.10;6.15;;;;;;;;;;5036288;28;20040;-76
2022/09/24 03:09:06;;;;;;;16.77;5.40;;;;;;;;;;5031165;28;20185;-76
2022/09/24 03:11:32;;;;;;;15.95;5.07;;;;;;;;;;5022724;28;20091;-76
2022/09/24 03:13:57;;;;;;;17.60;4.78;;;;;;;;;;5037267;28;20051;-75
2022/09/24 03:16:23;;;;;;;18.75;5.28;;;;;;;;;;5061812;28;20024;-75
2022/09/24 03:18:48;;;;;;;26.60;4.97;;;;;;;;;;5058882;28;20033;-74
2022/09/24 03:21:14;;;;;;;22.65;4.45;;;;;;;;;;5058932;28;20197;-74
2022/09/24 03:23:40;;;;;;;13.18;4.40;;;;;;;;;;5044128;28;20463;-73
2022/09/24 03:26:06;;;;;;;20.05;5.28;;;;;;;;;;5040103;28;20526;-74
2022/09/24 03:28:32;;;;;;;17.55;4.75;;;;;;;;;;5036807;28;20387;-73
2022/09/24 03:31:00;;;;;;;15.98;5.68;;;;;;;;;;5039234;28;20772;-74
2022/09/24 03:33:26;;;;;;;22.38;5.40;;;;;;;;;;5033972;28;20100;-73
2022/09/24 03:35:55;;;;;;;18.98;4.72;;;;;;;;;;5040490;28;20578;-74
2022/09/24 03:38:21;;;;;;;16.40;5.32;;;;;;;;;;5039321;28;20281;-75
2022/09/24 03:40:46;;;;;;;22.33;5.05;;;;;;;;;;5037750;28;20067;-75
2022/09/24 03:43:11;;;;;;;14.98;4.50;;;;;;;;;;5033422;28;20028;-72
2022/09/24 03:45:37;;;;;;;18.48;4.93;;;;;;;;;;5041186;28;20032;-76
2022/09/24 03:48:04;;;;;;;20.33;5.20;;;;;;;;;;5038266;28;20591;-75
2022/09/24 03:50:30;;;;;;;21.25;4.80;;;;;;;;;;5036813;28;20056;-75
2022/09/24 03:52:55;;;;;;;20.60;5.10;;;;;;;;;;5022872;28;20132;-74
2022/09/24 03:55:20;;;;;;;22.38;5.03;;;;;;;;;;5040067;28;20040;-75
2022/09/24 03:57:45;;;;;;;20.60;5.65;;;;;;;;;;5037900;28;20040;-73
2022/09/24 04:00:11;;;;;;;14.15;5.13;;;;;;;;;;5037505;28;20031;-74
2022/09/24 04:02:36;;;;;;;15.02;4.78;;;;;;;;;;5024157;28;21312;-73
2022/09/24 04:05:02;;;;;;;15.57;4.78;;;;;;;;;;5053170;28;20633;-73
2022/09/24 04:07:29;;;;;;;20.23;4.97;;;;;;;;;;5038277;28;20074;-72
2022/09/24 04:09:54;;;;;;;17.75;5.13;;;;;;;;;;5017783;28;20079;-76
2022/09/24 04:12:20;;;;;;;12.63;4.63;;;;;;;;;;5033971;28;20579;-74
2022/09/24 04:14:47;;;;;;;25.20;5.10;;;;;;;;;;5022869;28;20622;-73
2022/09/24 04:17:13;;;;;;;12.95;4.78;;;;;;;;;;5038182;28;20509;-74
2022/09/24 04:19:39;;;;;;;20.90;5.20;;;;;;;;;;5026518;28;20043;-73
2022/09/24 04:22:05;;;;;;;17.38;4.68;;;;;;;;;;5037531;28;20427;-72
2022/09/24 04:24:30;;;;;;;16.05;4.60;;;;;;;;;;5035243;28;20070;-73
2022/09/24 04:26:55;;;;;;;15.45;4.82;;;;;;;;;;5038593;28;20134;-72
2022/09/24 04:29:20;;;;;;;15.57;4.60;;;;;;;;;;5037089;28;20440;-72
2022/09/24 04:31:46;;;;;;;16.38;5.00;;;;;;;;;;5034874;28;20048;-71
2022/09/24 04:34:11;;;;;;;18.98;4.80;;;;;;;;;;5037514;28;20047;-71
2022/09/24 04:36:37;;;;;;;17.35;4.72;;;;;;;;;;5035945;28;20345;-71
2022/09/24 04:39:05;;;;;;;14.13;4.70;;;;;;;;;;5053599;28;20141;-71
2022/09/24 04:41:30;;;;;;;18.77;4.82;;;;;;;;;;5035446;28;20058;-70
2022/09/24 04:43:58;;;;;;;16.05;4.75;;;;;;;;;;5019764;28;20031;-70
2022/09/24 04:46:26;;;;;;;19.40;4.57;;;;;;;;;;5038984;28;20024;-72
2022/09/24 04:48:52;;;;;;;19.83;4.65;;;;;;;;;;5037815;28;20033;-71
2022/09/24 04:51:18;;;;;;;17.70;4.40;;;;;;;;;;5036626;28;20055;-71
2022/09/24 04:53:46;;;;;;;16.50;4.60;;;;;;;;;;5036672;28;20409;-71
2022/09/24 04:56:13;;;;;;;19.08;4.43;;;;;;;;;;5037472;28;20588;-70
2022/09/24 04:58:38;;;;;;;12.55;4.78;;;;;;;;;;5037635;28;20276;-71
2022/09/24 05:01:03;;;;;;;20.73;4.78;;;;;;;;;;5037276;28;20075;-71
2022/09/24 05:03:29;;;;;;;16.90;4.72;;;;;;;;;;5032809;28;20040;-70
2022/09/24 05:05:55;;;;;;;16.67;4.47;;;;;;;;;;5020603;28;20750;-72
2022/09/24 05:08:20;;;;;;;17.88;4.25;;;;;;;;;;5036448;28;20482;-71
2022/09/24 05:10:46;;;;;;;18.70;4.78;;;;;;;;;;5034320;28;20850;-71
2022/09/24 05:13:11;;;;;;;20.35;4.53;;;;;;;;;;5041470;28;20068;-72
2022/09/24 05:15:36;;;;;;;16.20;4.22;;;;;;;;;;5039960;28;20225;-73
2022/09/24 05:18:02;;;;;;;20.00;4.63;;;;;;;;;;5045728;28;22748;-72
2022/09/24 05:20:28;;;;;;;18.67;4.47;;;;;;;;;;5042950;28;20185;-73
2022/09/24 05:22:53;;;;;;;20.42;4.85;;;;;;;;;;5039256;28;20129;-71
2022/09/24 05:25:20;;;;;;;18.38;4.20;;;;;;;;;;5056879;28;20534;-73
2022/09/24 05:27:55;;;;;;;23.27;4.57;;;;;;;;;;5056884;28;20036;-72
2022/09/24 05:30:21;;;;;;;25.63;4.38;;;;;;;;;;5058800;28;20820;-71
2022/09/24 05:32:51;;;;;;;19.38;4.40;;;;;;;;;;5030113;28;21135;-72
2022/09/24 05:35:24;;;;;;;22.48;4.35;;;;;;;;;;5059691;28;20047;-72
2022/09/24 05:37:52;;;;;;;19.48;4.07;;;;;;;;;;5047306;28;20036;-73
2022/09/24 05:43:01;;;;;;;17.65;3.65;;;;;;;;;;5058331;28;20849;-73
2022/09/24 05:45:29;;;;;;;15.18;3.45;;;;;;;;;;5036435;28;20374;-73
2022/09/24 05:48:00;;;;;;;21.02;4.20;;;;;;;;;;5036176;28;20036;-72
2022/09/24 05:50:26;;;;;;;18.73;3.58;;;;;;;;;;5048944;28;20197;-74
2022/09/24 05:52:59;;;;;;;15.73;3.40;;;;;;;;;;5051988;28;20078;-73
2022/09/24 05:55:27;;;;;;;22.63;4.25;;;;;;;;;;5052035;28;20386;-72
2022/09/24 05:57:52;;;;;;;24.38;4.30;;;;;;;;;;5066286;28;20032;-72
2022/09/24 06:00:18;;;;;;;21.50;4.28;;;;;;;;;;5058096;28;20071;-72
2022/09/24 06:02:44;;;;;;;16.40;3.45;;;;;;;;;;5056953;28;20036;-72
2022/09/24 06:05:09;;;;;;;20.20;3.92;;;;;;;;;;5059518;28;20064;-72
2022/09/24 06:07:35;;;;;;;22.67;4.10;;;;;;;;;;5073090;28;20052;-74
2022/09/24 06:10:00;;;;;;;16.95;3.75;;;;;;;;;;5054517;28;20099;-71
2022/09/24 06:12:26;;;;;;;17.42;3.50;;;;;;;;;;5040373;28;20544;-72
2022/09/24 06:14:52;;;;;;;15.15;3.38;;;;;;;;;;5059663;28;20040;-73
2022/09/24 06:17:18;;;;;;;17.88;3.42;;;;;;;;;;5068483;28;20035;-72
2022/09/24 06:19:46;;;;;;;18.88;3.88;;;;;;;;;;5070257;28;20611;-72
2022/09/24 06:22:14;;;;;;;23.15;3.70;;;;;;;;;;5035838;28;20501;-72
2022/09/24 06:24:40;;;;;;;19.25;4.15;;;;;;;;;;5045527;28;20066;-73
2022/09/24 06:27:05;;;;;;;17.17;3.20;;;;;;;;;;5040424;28;20288;-73
2022/09/24 06:29:30;;;;;;;17.52;3.50;;;;;;;;;;5023758;28;20032;-74
2022/09/24 06:31:56;;;;;;;18.90;3.75;;;;;;;;;;5031184;28;20052;-73
2022/09/24 06:34:23;;;;;;;13.23;3.35;;;;;;;;;;5041638;28;20371;-73
2022/09/24 06:36:54;;;;;;;18.48;3.97;;;;;;;;;;5041779;28;20483;-71
2022/09/24 06:39:21;;;;;;;19.98;3.67;;;;;;;;;;5044551;28;20081;-73
2022/09/24 06:41:46;;;;;;;27.00;3.97;;;;;;;;;;5036478;28;20048;-74
2022/09/24 06:44:12;;;;;;;19.45;3.28;;;;;;;;;;5033737;28;20043;-74
2022/09/24 06:46:37;;;;;;;16.50;3.92;;;;;;;;;;5034235;28;20082;-74
2022/09/24 06:49:02;;;;;;;20.75;3.60;;;;;;;;;;5035683;28;20062;-73
2022/09/24 06:51:27;;;;;;;16.48;3.65;;;;;;;;;;5034986;28;20564;-74
2022/09/24 06:53:55;;;;;;;16.35;3.45;;;;;;;;;;5019358;28;20447;-74
2022/09/24 06:56:20;;;;;;;16.73;3.30;;;;;;;;;;5033279;28;20074;-74
2022/09/24 06:58:45;;;;;;;24.33;3.10;;;;;;;;;;5050074;28;20394;-74
2022/09/24 07:01:11;;;;;;;21.00;3.50;;;;;;;;;;5025932;28;20274;-74
2022/09/24 07:03:39;;;;;;;21.02;3.78;;;;;;;;;;5022393;28;20171;-74
2022/09/24 07:06:06;;;;;;;16.77;3.05;;;;;;;;;;5034108;28;20036;-75
2022/09/24 07:08:34;;;;;;;18.80;2.97;;;;;;;;;;5014036;28;20611;-74
2022/09/24 07:11:01;;;;;;;18.35;2.85;;;;;;;;;;5036721;28;20501;-74
2022/09/24 07:13:28;;;;;;;17.13;2.72;;;;;;;;;;5021958;28;20739;-74
2022/09/24 07:15:54;;;;;;;12.60;3.08;;;;;;;;;;5034842;28;20509;-74
2022/09/24 07:18:19;;;;;;;13.48;3.05;;;;;;;;;;5035326;28;20047;-74
2022/09/24 07:20:53;;;;;;;15.02;2.80;;;;;;;;;;5037908;28;20036;-73
2022/09/24 07:23:18;;;;;;;17.88;3.67;;;;;;;;;;5037692;28;20688;-73
2022/09/24 07:25:46;;;;;;;16.50;3.53;;;;;;;;;;5024373;28;20245;-74
2022/09/24 07:28:12;;;;;;;15.00;3.70;;;;;;;;;;5037823;28;20944;-74
2022/09/24 07:30:38;;;;;;;19.90;3.13;;;;;;;;;;5031799;28;20048;-74
2022/09/24 07:33:04;;;;;;;13.60;2.72;;;;;;;;;;5032961;28;20138;-74
2022/09/24 07:35:35;;;;;;;14.98;2.78;;;;;;;;;;5036301;28;20827;-74
2022/09/24 07:38:01;;;;;;;12.95;2.58;;;;;;;;;;5034212;28;20036;-74
2022/09/24 07:40:27;;;;;;;18.33;3.90;;;;;;;;;;5034610;28;20154;-74
2022/09/24 07:42:54;;;;;;;13.63;3.15;;;;;;;;;;5034511;28;20086;-74
2022/09/24 07:45:19;;;;;;;11.63;2.50;;;;;;;;;;5036931;28;20154;-74
2022/09/24 07:47:45;;;;;;;15.48;3.05;;;;;;;;;;5035257;28;20559;-74
2022/09/24 07:50:12;;;;;;;13.75;2.72;;;;;;;;;;5035049;28;20518;-74
2022/09/24 07:52:37;;;;;;;13.02;2.58;;;;;;;;;;5033591;28;20136;-75
2022/09/24 07:55:03;;;;;;;13.68;2.70;;;;;;;;;;5033231;28;20179;-75
2022/09/24 07:57:28;;;;;;;14.77;2.70;;;;;;;;;;5019490;28;20220;-74
2022/09/24 07:59:53;;;;;;;15.60;2.65;;;;;;;;;;5017424;28;20029;-74
2022/09/24 08:02:19;;;;;;;13.60;2.47;;;;;;;;;;5020371;28;20590;-74
2022/09/24 08:04:47;;;;;;;16.15;2.60;;;;;;;;;;5033989;28;20048;-74
2022/09/24 08:07:12;;;;;;;15.75;2.47;;;;;;;;;;5034881;28;20090;-73
2022/09/24 08:09:43;;;;;;;13.05;2.20;;;;;;;;;;5034396;28;20125;-75
2022/09/24 08:12:09;;;;;;;15.57;2.88;;;;;;;;;;5034835;28;20040;-73
2022/09/24 08:14:35;;;;;;;16.20;2.20;;;;;;;;;;5031858;28;20063;-73
2022/09/24 08:17:02;;;;;;;10.65;2.00;;;;;;;;;;5035856;28;20710;-73
2022/09/24 08:19:29;;;;;;;13.70;2.60;;;;;;;;;;5036940;28;21111;-73
2022/09/24 08:21:56;;;;;;;12.55;2.25;;;;;;;;;;5037156;28;20074;-73
2022/09/24 08:24:26;;;;;;;11.05;2.10;;;;;;;;;;5033938;28;20806;-73
2022/09/24 08:26:52;;;;;;;9.25;1.65;;;;;;;;;;5035128;28;20353;-72
2022/09/24 08:29:17;;;;;;;8.30;1.50;;;;;;;;;;5035487;28;20029;-74
2022/09/24 08:31:43;;;;;;;11.30;1.73;;;;;;;;;;5035539;28;20113;-73
2022/09/24 08:34:09;;;;;;;7.65;1.70;;;;;;;;;;5035515;28;20114;-74
2022/09/24 08:36:34;;;;;;;10.18;1.73;;;;;;;;;;5036252;28;20032;-72
2022/09/24 08:38:59;;;;;;;9.50;1.83;;;;;;;;;;5034648;28;20323;-74
2022/09/24 08:41:33;;;;;;;13.05;2.55;;;;;;;;;;5020080;28;20036;-71
2022/09/24 08:44:09;;;;;;;8.70;1.45;;;;;;;;;;5032817;28;20052;-72
2022/09/24 08:49:29;;;;;;;10.88;2.20;;;;;;;;;;5035496;28;20036;-72
2022/09/24 08:51:57;;;;;;;14.55;1.65;;;;;;;;;;5034076;28;20626;-68
2022/09/24 08:54:23;;;;;;;12.23;1.95;;;;;;;;;;5026047;28;20032;-71
2022/09/24 08:56:50;;;;;;;12.40;1.95;;;;;;;;;;5033171;28;20608;-69
2022/09/24 08:59:22;;;;;;;9.40;1.50;;;;;;;;;;5034789;28;20032;-69
2022/09/24 09:02:02;;;;;;;9.68;1.98;;;;;;;;;;5034742;28;20139;-69
2022/09/24 09:04:36;;;;;;;8.55;1.60;;;;;;;;;;5033534;28;22214;-69
2022/09/24 09:07:17;;;;;;;7.88;1.45;;;;;;;;;;5035365;28;20408;-70
2022/09/24 09:09:51;;;;;;;7.95;1.80;;;;;;;;;;5034791;28;20235;-70
2022/09/24 09:12:29;;;;;;;10.48;1.73;;;;;;;;;;5036502;28;21960;-70
2022/09/24 09:15:01;;;;;;;7.25;1.63;;;;;;;;;;5017492;28;20036;-70
2022/09/24 09:17:29;;;;;;;6.32;1.50;;;;;;;;;;5034233;28;20153;-69
2022/09/24 09:19:56;;;;;;;7.63;1.40;;;;;;;;;;5034537;28;20382;-70
2022/09/24 09:22:23;;;;;;;10.43;1.45;;;;;;;;;;5035402;28;20377;-70
2022/09/24 09:24:53;;;;;;;9.57;1.63;;;;;;;;;;5033622;28;20037;-70
2022/09/24 09:27:19;;;;;;;8.52;1.48;;;;;;;;;;5014595;28;20595;-69
2022/09/24 09:29:47;;;;;;;9.65;1.70;;;;;;;;;;5033179;28;20471;-67
2022/09/24 09:32:12;;;;;;;7.53;1.75;;;;;;;;;;5034736;28;20129;-68
2022/09/24 09:34:57;;;;;;;10.05;1.92;;;;;;;;;;5016635;28;20048;-69
2022/09/24 09:37:23;;;;;;;6.25;1.70;;;;;;;;;;5035916;28;20052;-68
2022/09/24 09:39:49;;;;;;;12.05;1.92;;;;;;;;;;5034539;28;20480;-68
2022/09/24 09:42:14;;;;;;;6.68;1.52;;;;;;;;;;5034790;28;20072;-69
2022/09/24 09:44:41;;;;;;;7.28;1.30;;;;;;;;;;5033245;28;20449;-70
2022/09/24 09:47:28;;;;;;;9.32;1.73;;;;;;;;;;5035164;28;20533;-70
2022/09/24 09:49:55;;;;;;;7.45;1.70;;;;;;;;;;5035046;28;20436;-69
2022/09/24 09:52:23;;;;;;;6.93;1.27;;;;;;;;;;5033874;28;20036;-69
2022/09/24 09:54:49;;;;;;;10.77;1.80;;;;;;;;;;5034754;28;20032;-70
2022/09/24 09:57:17;;;;;;;7.43;1.40;;;;;;;;;;5034433;28;20039;-69
2022/09/24 09:59:47;;;;;;;7.95;1.50;;;;;;;;;;5034160;28;20583;-67
2022/09/24 10:02:18;;;;;;;8.18;1.65;;;;;;;;;;5033432;28;20320;-69
2022/09/24 10:04:46;;;;;;;7.93;1.55;;;;;;;;;;5033081;28;20053;-68
2022/09/24 10:07:15;;;;;;;7.88;1.55;;;;;;;;;;5033885;28;20069;-69
2022/09/24 10:09:41;;;;;;;8.43;1.65;;;;;;;;;;5033888;28;20044;-68
2022/09/24 10:12:07;;;;;;;10.77;2.25;;;;;;;;;;5033185;28;20040;-70
2022/09/24 10:14:33;;;;;;;10.90;1.95;;;;;;;;;;5034412;28;20450;-69
2022/09/24 10:17:04;;;;;;;9.60;1.60;;;;;;;;;;5033275;28;20028;-69
2022/09/24 10:19:30;;;;;;;8.70;1.50;;;;;;;;;;5015699;28;20418;-68
2022/09/24 10:21:56;;;;;;;7.35;1.73;;;;;;;;;;5033393;28;20101;-68
2022/09/24 10:24:23;;;;;;;8.75;1.88;;;;;;;;;;5029927;28;20040;-67
2022/09/24 10:26:48;;;;;;;8.55;1.60;;;;;;;;;;5033129;28;20305;-69
2022/09/24 10:32:02;;;;;;;10.13;1.70;;;;;;;;;;5034206;28;20488;-67
2022/09/24 10:34:30;;;;;;;9.35;1.60;;;;;;;;;;5030631;28;21748;-69
2022/09/24 10:37:03;;;;;;;9.90;1.77;;;;;;;;;;5032691;28;20044;-68
2022/09/24 10:39:29;;;;;;;10.07;2.03;;;;;;;;;;5031395;28;20123;-69
2022/09/24 10:41:57;;;;;;;10.40;1.70;;;;;;;;;;5032444;28;20060;-69
2022/09/24 10:44:23;;;;;;;10.15;1.60;;;;;;;;;;5019966;28;20105;-68
2022/09/24 10:47:03;;;;;;;11.27;1.73;;;;;;;;;;5032356;28;20039;-69
2022/09/24 10:49:38;;;;;;;8.32;1.30;;;;;;;;;;5033072;28;20529;-68
2022/09/24 10:52:03;;;;;;;9.52;1.88;;;;;;;;;;5033542;28;20063;-69
2022/09/24 10:54:29;;;;;;;7.60;1.38;;;;;;;;;;5035398;28;20194;-69
2022/09/24 10:56:58;;;;;;;9.75;1.50;;;;;;;;;;5013285;28;20135;-70
2022/09/24 10:59:34;;;;;;;7.18;1.70;;;;;;;;;;5016052;28;20029;-69
2022/09/24 11:02:02;;;;;;;7.28;1.25;;;;;;;;;;5007216;28;20036;-67
2022/09/24 11:04:50;;;;;;;8.32;1.63;;;;;;;;;;5035797;28;21056;-69
2022/09/24 11:07:33;;;;;;;10.82;1.50;;;;;;;;;;5034713;28;20433;-67
2022/09/24 11:10:17;;;;;;;6.25;1.48;;;;;;;;;;5034884;28;20556;-71
2022/09/24 11:12:57;;;;;;;11.35;1.80;;;;;;;;;;5032504;28;20066;-67
2022/09/24 11:15:49;;;;;;;9.32;1.40;;;;;;;;;;5035354;28;20058;-68
2022/09/24 11:18:26;;;;;;;6.35;1.38;;;;;;;;;;5025179;28;20772;-70
2022/09/24 11:21:01;;;;;;;6.45;1.33;;;;;;;;;;5032380;28;20032;-68
2022/09/24 11:23:45;;;;;;;10.90;1.52;;;;;;;;;;5032456;28;20044;-68
2022/09/24 11:26:10;;;;;;;8.85;1.33;;;;;;;;;;5033242;28;20046;-67
2022/09/24 11:28:43;;;;;;;8.95;1.40;;;;;;;;;;5033812;28;20037;-68
2022/09/24 11:31:18;;;;;;;7.05;1.38;;;;;;;;;;5033354;28;20036;-68
2022/09/24 11:34:02;;;;;;;6.65;1.38;;;;;;;;;;5034050;28;20144;-69
2022/09/24 11:36:46;;;;;;;7.63;1.50;;;;;;;;;;5033162;28;20024;-67
2022/09/24 11:39:20;;;;;;;4.95;1.00;;;;;;;;;;5035174;28;20546;-69
2022/09/24 11:41:59;;;;;;;8.57;1.35;;;;;;;;;;5034415;28;20083;-67
2022/09/24 11:44:44;;;;;;;5.70;1.50;;;;;;;;;;5010046;28;20269;-67
2022/09/24 11:47:15;;;;;;;8.88;2.00;;;;;;;;;;5033993;28;20040;-68
2022/09/24 11:49:43;;;;;;;10.93;2.67;;;;;;;;;;5034641;28;20039;-67
2022/09/24 11:52:18;;;;;;;6.93;1.80;;;;;;;;;;5035137;28;20228;-67
2022/09/24 11:54:47;;;;;;;6.28;1.30;;;;;;;;;;5039079;28;20097;-67
2022/09/24 11:57:15;;;;;;;4.63;0.98;;;;;;;;;;5038035;28;20174;-68
2022/09/24 11:59:45;;;;;;;7.43;1.42;;;;;;;;;;5038365;28;20050;-67
2022/09/24 12:02:22;;;;;;;6.25;1.25;;;;;;;;;;5037326;28;20137;-66
2022/09/24 12:04:57;;;;;;;5.75;1.42;;;;;;;;;;5029655;28;20044;-67
2022/09/24 12:07:29;;;;;;;7.80;1.60;;;;;;;;;;5038005;28;20047;-67
2022/09/24 12:10:15;;;;;;;6.25;1.45;;;;;;;;;;5038281;28;20516;-68
2022/09/24 12:12:44;;;;;;;10.23;1.90;;;;;;;;;;5037214;28;20044;-68
2022/09/24 12:15:21;;;;;;;7.07;1.77;;;;;;;;;;5037582;28;20049;-68
2022/09/24 12:18:07;;;;;;;7.13;1.83;;;;;;;;;;5025117;28;20042;-69
2022/09/24 12:20:40;;;;;;;6.53;1.45;;;;;;;;;;5034493;28;20036;-69
2022/09/24 12:23:10;;;;;;;7.97;1.55;;;;;;;;;;5037742;28;22411;-67
2022/09/24 12:25:43;;;;;;;4.65;0.98;;;;;;;;;;5013465;28;20029;-67
2022/09/24 12:28:13;;;;;;;5.15;1.15;;;;;;;;;;5035750;28;20760;-68
2022/09/24 12:33:38;;;;;;;5.93;0.98;;;;;;;;;;5036819;28;20071;-69
2022/09/24 12:36:22;;;;;;;7.70;1.48;;;;;;;;;;5053155;28;22039;-68
2022/09/24 12:38:51;;;;;;;8.27;1.30;;;;;;;;;;5037732;28;20040;-68
2022/09/24 12:41:27;;;;;;;5.55;1.33;;;;;;;;;;5052924;28;20822;-68
2022/09/24 12:43:58;;;;;;;5.35;1.05;;;;;;;;;;5036895;28;20520;-68
2022/09/24 12:46:24;;;;;;;4.90;1.38;;;;;;;;;;5037457;28;20308;-68
2022/09/24 12:48:50;;;;;;;4.22;1.40;;;;;;;;;;5039979;28;20036;-70
2022/09/24 12:51:21;;;;;;;5.45;0.98;;;;;;;;;;5037821;28;20062;-69
2022/09/24 12:53:54;;;;;;;6.15;1.10;;;;;;;;;;5034756;28;20499;-67
2022/09/24 12:56:23;;;;;;;5.13;1.00;;;;;;;;;;5036150;28;20536;-67
2022/09/24 12:58:51;;;;;;;5.95;1.00;;;;;;;;;;5036095;28;20031;-68
2022/09/24 13:01:23;;;;;;;5.00;0.90;;;;;;;;;;5038528;28;20032;-68
2022/09/24 13:04:24;;;;;;;5.22;1.10;;;;;;;;;;5039645;28;20486;-67
2022/09/24 13:06:52;;;;;;;5.70;1.00;;;;;;;;;;5036538;28;20116;-68
2022/09/24 13:09:20;;;;;;;5.13;1.33;;;;;;;;;;5036785;28;20094;-67
2022/09/24 13:11:46;;;;;;;6.70;1.33;;;;;;;;;;5034725;28;20622;-69
2022/09/24 13:14:11;;;;;;;5.30;1.10;;;;;;;;;;5038978;28;20363;-66
2022/09/24 13:16:41;;;;;;;7.55;1.38;;;;;;;;;;5038440;28;20308;-67
2022/09/24 13:19:26;;;;;;;7.43;1.30;;;;;;;;;;5039000;28;20240;-68
2022/09/24 13:21:52;;;;;;;6.53;1.48;;;;;;;;;;5037063;28;20035;-67
2022/09/24 13:24:28;;;;;;;6.20;1.30;;;;;;;;;;5038116;28;20734;-68
2022/09/24 13:26:56;;;;;;;8.98;1.20;;;;;;;;;;5033588;28;20432;-67
2022/09/24 13:29:23;;;;;;;6.35;1.20;;;;;;;;;;5020980;28;20714;-66
2022/09/24 13:31:53;;;;;;;4.05;1.00;;;;;;;;;;5038340;28;20135;-67
2022/09/24 13:34:24;;;;;;;5.95;1.30;;;;;;;;;;5038621;28;20576;-68
2022/09/24 13:36:57;;;;;;;5.82;1.17;;;;;;;;;;5034968;28;20280;-67
2022/09/24 13:39:30;;;;;;;6.07;1.10;;;;;;;;;;5036100;28;21114;-67
2022/09/24 13:42:14;;;;;;;5.78;1.20;;;;;;;;;;5036100;28;20366;-66
2022/09/24 13:45:06;;;;;;;7.80;1.35;;;;;;;;;;5034407;28;20343;-68
2022/09/24 13:47:32;;;;;;;;;;;;;;;;;;5033944;28;20040;-67
2022/09/24 13:50:17;;;;;;;6.80;1.10;;;;;;;;;;5036267;28;20109;-69
2022/09/24 13:52:43;;;;;;;8.15;1.45;;;;;;;;;;5035254;28;20785;-67
2022/09/24 13:55:16;;;;;;;5.10;1.00;;;;;;;;;;5035583;28;20040;-71
2022/09/24 13:57:43;;;;;;;6.47;1.00;;;;;;;;;;5037644;28;20066;-67
2022/09/24 14:00:23;;;;;;;5.25;0.85;;;;;;;;;;5036814;28;20729;-69
2022/09/24 14:02:51;;;;;;;8.90;1.10;;;;;;;;;;5036673;28;20438;-66
2022/09/24 14:05:22;;;;;;;6.00;0.98;;;;;;;;;;5034282;28;20739;-68
2022/09/24 14:07:57;;;;;;;4.00;0.93;;;;;;;;;;5033496;28;20385;-66
2022/09/24 14:10:24;;;;;;;5.95;1.35;;;;;;;;;;5031069;28;21718;-66
2022/09/24 14:13:09;;;;;;;6.53;0.93;;;;;;;;;;5024595;28;20044;-68
2022/09/24 14:15:35;;;;;;;10.45;1.40;;;;;;;;;;5029395;28;20047;-67
2022/09/24 14:18:00;;;;;;;7.55;1.33;;;;;;;;;;5030887;28;20032;-69
2022/09/24 14:20:29;;;;;;;9.10;1.58;;;;;;;;;;5031932;28;20556;-68
2022/09/24 14:22:55;;;;;;;6.55;0.90;;;;;;;;;;5032140;28;20029;-69
2022/09/24 14:25:28;;;;;;;4.53;1.15;;;;;;;;;;5031595;28;20764;-65
2022/09/24 14:27:56;;;;;;;6.95;1.20;;;;;;;;;;5031817;28;20032;-67
2022/09/24 14:30:23;;;;;;;7.13;1.20;;;;;;;;;;5033053;28;20039;-67
2022/09/24 14:32:57;;;;;;;6.72;1.38;;;;;;;;;;5028409;28;20051;-67
2022/09/24 14:35:31;;;;;;;7.85;1.45;;;;;;;;;;5031779;28;20036;-67
2022/09/24 14:38:03;;;;;;;6.40;1.30;;;;;;;;;;5015780;28;20033;-67
2022/09/24 14:40:29;;;;;;;6.20;1.20;;;;;;;;;;5034080;28;20044;-68
2022/09/24 14:43:00;;;;;;;4.93;0.80;;;;;;;;;;5035334;28;25126;-68
2022/09/24 14:45:38;;;;;;;5.43;0.95;;;;;;;;;;5031461;28;20193;-68
2022/09/24 14:48:18;;;;;;;3.35;0.80;;;;;;;;;;5047311;28;20496;-67
2022/09/24 14:50:44;;;;;;;7.25;1.33;;;;;;;;;;5028530;28;20044;-66
2022/09/24 14:53:23;;;;;;;4.30;0.80;;;;;;;;;;5029375;28;20067;-67
2022/09/24 14:55:48;;;;;;;5.95;1.00;;;;;;;;;;5007715;28;20135;-67
2022/09/24 14:58:41;;;;;;;6.95;1.00;;;;;;;;;;5010924;28;20083;-69